sensor_id;sensor_type;location;lat;lon;timestamp;pressure;altitude;pressure_sealevel;temperature;humidity
10474;BME280;5284;50.446;7.904;2023-02-11T00:05:05;100264.97;;;2.53;100.00
10474;BME280;5284;50.446;7.904;2023-02-11T00:10:08;100270.22;;;2.54;100.00
10474;BME280;5284;50.446;7.904;2023-02-11T00:15:12;100264.91;;;2.56;100.00
10474;BME280;5284;50.446;7.904;2023-02-11T00:20:15;100272.75;;;2.57;100.00
10474;BME280;5284;50.446;7.904;2023-02-11T00:25:18;100271.94;;;2.55;100.00
10474;BME280;5284;50.446;7.904;2023-02-11T00:30:22;100263.06;;;2.59;100.00
10474;BME280;5284;50.446;7.904;2023-02-11T00:35:27;100262.13;;;2.62;100.00
10474;BME280;5284;50.446;7.904;2023-02-11T00:40:30;100257.69;;;2.64;100.00
10474;BME280;5284;50.446;7.904;2023-02-11T00:45:34;100257.63;;;2.65;100.00
10474;BME280;5284;50.446;7.904;2023-02-11T00:50:37;100250.53;;;2.67;100.00
10474;BME280;5284;50.446;7.904;2023-02-11T00:55:40;100247.00;;;2.68;100.00
10474;BME280;5284;50.446;7.904;2023-02-11T01:00:45;100246.06;;;2.71;100.00
10474;BME280;5284;50.446;7.904;2023-02-11T01:05:48;100249.63;;;2.70;100.00
10474;BME280;5284;50.446;7.904;2023-02-11T01:10:56;100247.78;;;2.73;100.00
10474;BME280;5284;50.446;7.904;2023-02-11T01:16:00;100244.28;;;2.71;100.00
10474;BME280;5284;50.446;7.904;2023-02-11T01:21:03;100234.63;;;2.72;100.00
10474;BME280;5284;50.446;7.904;2023-02-11T01:26:06;100231.13;;;2.71;100.00
10474;BME280;5284;50.446;7.904;2023-02-11T01:31:10;100240.81;;;2.71;100.00
10474;BME280;5284;50.446;7.904;2023-02-11T01:36:13;100228.63;;;2.67;100.00
10474;BME280;5284;50.446;7.904;2023-02-11T01:41:16;100231.28;;;2.65;100.00
10474;BME280;5284;50.446;7.904;2023-02-11T01:46:28;100219.19;;;2.60;100.00
10474;BME280;5284;50.446;7.904;2023-02-11T01:51:35;100217.53;;;2.56;100.00
10474;BME280;5284;50.446;7.904;2023-02-11T01:56:43;100218.53;;;2.50;100.00
10474;BME280;5284;50.446;7.904;2023-02-11T02:02:09;100205.56;;;2.43;100.00
10474;BME280;5284;50.446;7.904;2023-02-11T02:07:20;100210.09;;;2.38;100.00
10474;BME280;5284;50.446;7.904;2023-02-11T02:12:26;100216.34;;;2.34;100.00
10474;BME280;5284;50.446;7.904;2023-02-11T02:17:37;100217.41;;;2.27;100.00
10474;BME280;5284;50.446;7.904;2023-02-11T02:23:13;100225.31;;;2.25;100.00
10474;BME280;5284;50.446;7.904;2023-02-11T02:28:35;100227.22;;;2.20;100.00
10474;BME280;5284;50.446;7.904;2023-02-11T02:33:52;100226.47;;;2.14;100.00
10474;BME280;5284;50.446;7.904;2023-02-11T02:39:02;100211.75;;;2.08;100.00
10474;BME280;5284;50.446;7.904;2023-02-11T02:44:06;100200.34;;;2.08;100.00
10474;BME280;5284;50.446;7.904;2023-02-11T02:49:12;100209.09;;;2.08;100.00
10474;BME280;5284;50.446;7.904;2023-02-11T02:54:59;100214.38;;;2.08;100.00
10474;BME280;5284;50.446;7.904;2023-02-11T03:00:14;100216.13;;;2.08;100.00
10474;BME280;5284;50.446;7.904;2023-02-11T03:05:29;100209.28;;;2.01;100.00
10474;BME280;5284;50.446;7.904;2023-02-11T03:10:35;100212.00;;;1.98;100.00
10474;BME280;5284;50.446;7.904;2023-02-11T03:15:42;100199.81;;;1.94;100.00
10474;BME280;5284;50.446;7.904;2023-02-11T03:20:48;100174.50;;;1.90;100.00
10474;BME280;5284;50.446;7.904;2023-02-11T03:25:57;100163.09;;;1.89;100.00
10474;BME280;5284;50.446;7.904;2023-02-11T03:31:09;100158.75;;;1.88;100.00
10474;BME280;5284;50.446;7.904;2023-02-11T03:36:18;100144.88;;;1.82;100.00
10474;BME280;5284;50.446;7.904;2023-02-11T03:41:23;100138.03;;;1.75;100.00
10474;BME280;5284;50.446;7.904;2023-02-11T03:46:29;100130.31;;;1.69;100.00
10474;BME280;5284;50.446;7.904;2023-02-11T03:51:34;100135.72;;;1.63;100.00
10474;BME280;5284;50.446;7.904;2023-02-11T03:56:43;100158.69;;;1.55;100.00
10474;BME280;5284;50.446;7.904;2023-02-11T04:01:50;100168.50;;;1.47;100.00
10474;BME280;5284;50.446;7.904;2023-02-11T04:06:55;100166.84;;;1.43;100.00
10474;BME280;5284;50.446;7.904;2023-02-11T04:11:58;100157.22;;;1.42;100.00
10474;BME280;5284;50.446;7.904;2023-02-11T04:17:02;100156.38;;;1.42;100.00
10474;BME280;5284;50.446;7.904;2023-02-11T04:22:06;100156.31;;;1.45;100.00
10474;BME280;5284;50.446;7.904;2023-02-11T04:27:09;100152.03;;;1.41;100.00
10474;BME280;5284;50.446;7.904;2023-02-11T04:32:13;100141.69;;;1.32;100.00
10474;BME280;5284;50.446;7.904;2023-02-11T04:37:17;100143.56;;;1.27;100.00
10474;BME280;5284;50.446;7.904;2023-02-11T04:42:20;100140.94;;;1.27;100.00
10474;BME280;5284;50.446;7.904;2023-02-11T04:47:23;100145.44;;;1.22;100.00
10474;BME280;5284;50.446;7.904;2023-02-11T04:52:27;100147.25;;;1.18;100.00
10474;BME280;5284;50.446;7.904;2023-02-11T04:57:30;100131.47;;;1.20;100.00
10474;BME280;5284;50.446;7.904;2023-02-11T05:02:32;100121.06;;;1.15;100.00
10474;BME280;5284;50.446;7.904;2023-02-11T05:07:37;100118.41;;;1.17;100.00
10474;BME280;5284;50.446;7.904;2023-02-11T05:12:39;100126.31;;;1.15;100.00
10474;BME280;5284;50.446;7.904;2023-02-11T05:17:42;100149.06;;;1.16;100.00
10474;BME280;5284;50.446;7.904;2023-02-11T05:22:46;100148.38;;;1.08;100.00
10474;BME280;5284;50.446;7.904;2023-02-11T05:27:49;100159.03;;;1.01;100.00
10474;BME280;5284;50.446;7.904;2023-02-11T05:32:52;100155.88;;;0.85;100.00
10474;BME280;5284;50.446;7.904;2023-02-11T05:37:56;100150.16;;;0.65;100.00
10474;BME280;5284;50.446;7.904;2023-02-11T05:42:59;100154.78;;;0.53;100.00
10474;BME280;5284;50.446;7.904;2023-02-11T05:48:02;100154.19;;;0.39;100.00
10474;BME280;5284;50.446;7.904;2023-02-11T05:53:06;100158.69;;;0.31;100.00
10474;BME280;5284;50.446;7.904;2023-02-11T05:58:09;100160.59;;;0.23;100.00
10474;BME280;5284;50.446;7.904;2023-02-11T06:03:12;100163.34;;;0.15;100.00
10474;BME280;5284;50.446;7.904;2023-02-11T06:08:16;100167.69;;;0.16;100.00
10474;BME280;5284;50.446;7.904;2023-02-11T06:13:19;100155.22;;;0.29;100.00
10474;BME280;5284;50.446;7.904;2023-02-11T06:18:22;100154.34;;;0.30;100.00
10474;BME280;5284;50.446;7.904;2023-02-11T06:23:26;100150.81;;;0.31;100.00
10474;BME280;5284;50.446;7.904;2023-02-11T06:28:31;100139.44;;;0.32;100.00
10474;BME280;5284;50.446;7.904;2023-02-11T06:33:34;100134.88;;;0.43;100.00
10474;BME280;5284;50.446;7.904;2023-02-11T06:38:38;100126.69;;;0.58;100.00
10474;BME280;5284;50.446;7.904;2023-02-11T06:43:41;100124.69;;;0.70;100.00
10474;BME280;5284;50.446;7.904;2023-02-11T06:48:44;100134.91;;;0.82;100.00
10474;BME280;5284;50.446;7.904;2023-02-11T06:53:49;100141.69;;;0.94;100.00
10474;BME280;5284;50.446;7.904;2023-02-11T06:58:52;100144.06;;;1.06;100.00
10474;BME280;5284;50.446;7.904;2023-02-11T07:03:56;100147.25;;;1.18;100.00
10474;BME280;5284;50.446;7.904;2023-02-11T07:09:00;100143.38;;;1.36;100.00
10474;BME280;5284;50.446;7.904;2023-02-11T07:14:04;100151.88;;;1.47;100.00
10474;BME280;5284;50.446;7.904;2023-02-11T07:19:08;100146.38;;;1.57;100.00
10474;BME280;5284;50.446;7.904;2023-02-11T07:24:13;100154.88;;;1.66;100.00
10474;BME280;5284;50.446;7.904;2023-02-11T07:29:16;100153.75;;;1.78;100.00
10474;BME280;5284;50.446;7.904;2023-02-11T07:34:18;100155.13;;;1.92;100.00
10474;BME280;5284;50.446;7.904;2023-02-11T07:39:23;100175.00;;;2.05;100.00
10474;BME280;5284;50.446;7.904;2023-02-11T07:44:28;100180.84;;;2.15;100.00
10474;BME280;5284;50.446;7.904;2023-02-11T07:49:30;100184.94;;;2.26;100.00
10474;BME280;5284;50.446;7.904;2023-02-11T07:54:35;100194.31;;;2.36;100.00
10474;BME280;5284;50.446;7.904;2023-02-11T07:59:37;100192.41;;;2.43;100.00
10474;BME280;5284;50.446;7.904;2023-02-11T08:04:40;100195.34;;;2.64;100.00
10474;BME280;5284;50.446;7.904;2023-02-11T08:09:45;100201.31;;;2.71;100.00
10474;BME280;5284;50.446;7.904;2023-02-11T08:14:47;100200.31;;;2.75;100.00
10474;BME280;5284;50.446;7.904;2023-02-11T08:19:50;100199.13;;;2.86;100.00
10474;BME280;5284;50.446;7.904;2023-02-11T08:24:54;100197.19;;;2.93;100.00
10474;BME280;5284;50.446;7.904;2023-02-11T08:29:58;100196.00;;;3.02;100.00
10474;BME280;5284;50.446;7.904;2023-02-11T08:35:02;100196.75;;;3.06;100.00
10474;BME280;5284;50.446;7.904;2023-02-11T08:40:07;100191.34;;;3.12;100.00
10474;BME280;5284;50.446;7.904;2023-02-11T08:45:10;100199.72;;;3.26;100.00
10474;BME280;5284;50.446;7.904;2023-02-11T08:50:13;100204.94;;;3.27;100.00
10474;BME280;5284;50.446;7.904;2023-02-11T08:55:18;100193.25;;;3.36;100.00
10474;BME280;5284;50.446;7.904;2023-02-11T09:00:21;100205.56;;;3.35;100.00
10474;BME280;5284;50.446;7.904;2023-02-11T09:05:24;100215.16;;;3.38;100.00
10474;BME280;5284;50.446;7.904;2023-02-11T09:10:29;100223.03;;;3.39;100.00
10474;BME280;5284;50.446;7.904;2023-02-11T09:15:32;100233.16;;;3.53;100.00
10474;BME280;5284;50.446;7.904;2023-02-11T09:20:35;100237.16;;;3.66;100.00
10474;BME280;5284;50.446;7.904;2023-02-11T09:25:39;100239.34;;;3.52;100.00
10474;BME280;5284;50.446;7.904;2023-02-11T09:30:42;100236.22;;;3.68;100.00
10474;BME280;5284;50.446;7.904;2023-02-11T09:35:45;100244.66;;;3.79;100.00
10474;BME280;5284;50.446;7.904;2023-02-11T09:40:49;100246.06;;;3.91;100.00
10474;BME280;5284;50.446;7.904;2023-02-11T09:45:53;100252.72;;;4.02;100.00
10474;BME280;5284;50.446;7.904;2023-02-11T09:50:59;100251.84;;;4.02;100.00
10474;BME280;5284;50.446;7.904;2023-02-11T09:56:11;100254.03;;;4.17;100.00
10474;BME280;5284;50.446;7.904;2023-02-11T10:01:20;100260.84;;;4.22;100.00
10474;BME280;5284;50.446;7.904;2023-02-11T10:06:40;100273.69;;;4.34;100.00
10474;BME280;5284;50.446;7.904;2023-02-11T10:11:52;100276.13;;;4.40;100.00
10474;BME280;5284;50.446;7.904;2023-02-11T10:17:07;100275.97;;;4.45;100.00
10474;BME280;5284;50.446;7.904;2023-02-11T10:22:17;100271.78;;;4.38;100.00
10474;BME280;5284;50.446;7.904;2023-02-11T10:27:27;100279.53;;;4.44;100.00
10474;BME280;5284;50.446;7.904;2023-02-11T10:32:36;100275.16;;;4.43;100.00
10474;BME280;5284;50.446;7.904;2023-02-11T10:37:41;100274.03;;;4.49;100.00
10474;BME280;5284;50.446;7.904;2023-02-11T10:42:47;100280.84;;;4.56;100.00
10474;BME280;5284;50.446;7.904;2023-02-11T10:47:52;100273.41;;;4.67;100.00
10474;BME280;5284;50.446;7.904;2023-02-11T10:53:11;100272.72;;;4.62;100.00
10474;BME280;5284;50.446;7.904;2023-02-11T10:58:23;100264.69;;;4.65;100.00
10474;BME280;5284;50.446;7.904;2023-02-11T11:03:28;100262.75;;;4.70;100.00
10474;BME280;5284;50.446;7.904;2023-02-11T11:08:39;100262.13;;;4.88;100.00
10474;BME280;5284;50.446;7.904;2023-02-11T11:13:57;100262.06;;;4.90;100.00
10474;BME280;5284;50.446;7.904;2023-02-11T11:19:19;100266.97;;;5.00;100.00
10474;BME280;5284;50.446;7.904;2023-02-11T11:24:26;100266.16;;;4.98;100.00
10474;BME280;5284;50.446;7.904;2023-02-11T11:29:31;100265.84;;;5.07;100.00
10474;BME280;5284;50.446;7.904;2023-02-11T11:34:37;100268.47;;;5.07;100.00
10474;BME280;5284;50.446;7.904;2023-02-11T11:39:47;100268.16;;;5.16;100.00
10474;BME280;5284;50.446;7.904;2023-02-11T11:44:57;100257.38;;;5.22;100.00
10474;BME280;5284;50.446;7.904;2023-02-11T11:50:19;100252.09;;;5.22;100.00
10474;BME280;5284;50.446;7.904;2023-02-11T11:55:30;100261.16;;;5.15;100.00
10474;BME280;5284;50.446;7.904;2023-02-11T12:00:43;100258.63;;;5.12;100.00
10474;BME280;5284;50.446;7.904;2023-02-11T12:05:57;100246.50;;;5.05;100.00
10474;BME280;5284;50.446;7.904;2023-02-11T12:11:11;100255.88;;;5.15;100.00
10474;BME280;5284;50.446;7.904;2023-02-11T12:16:28;100258.44;;;5.17;100.00
10474;BME280;5284;50.446;7.904;2023-02-11T12:21:40;100266.22;;;5.21;100.00
10474;BME280;5284;50.446;7.904;2023-02-11T12:26:51;100261.50;;;5.29;100.00
10474;BME280;5284;50.446;7.904;2023-02-11T12:32:15;100267.72;;;5.28;100.00
10474;BME280;5284;50.446;7.904;2023-02-11T12:37:32;100251.84;;;5.28;100.00
10474;BME280;5284;50.446;7.904;2023-02-11T12:42:46;100244.72;;;5.30;100.00
10474;BME280;5284;50.446;7.904;2023-02-11T12:48:25;100244.38;;;5.39;100.00
10474;BME280;5284;50.446;7.904;2023-02-11T12:53:59;100253.13;;;5.41;100.00
10474;BME280;5284;50.446;7.904;2023-02-11T12:59:15;100250.44;;;5.43;100.00
10474;BME280;5284;50.446;7.904;2023-02-11T13:04:25;100243.06;;;5.51;100.00
10474;BME280;5284;50.446;7.904;2023-02-11T13:09:34;100245.97;;;5.43;100.00
10474;BME280;5284;50.446;7.904;2023-02-11T13:14:40;100245.03;;;5.46;100.00
10474;BME280;5284;50.446;7.904;2023-02-11T13:19:48;100232.25;;;5.57;100.00
10474;BME280;5284;50.446;7.904;2023-02-11T13:24:58;100229.94;;;5.48;100.00
10474;BME280;5284;50.446;7.904;2023-02-11T13:30:19;100227.16;;;5.52;100.00
10474;BME280;5284;50.446;7.904;2023-02-11T13:35:28;100222.69;;;5.53;100.00
10474;BME280;5284;50.446;7.904;2023-02-11T13:40:34;100208.78;;;5.48;100.00
10474;BME280;5284;50.446;7.904;2023-02-11T13:45:41;100204.38;;;5.48;100.00
10474;BME280;5284;50.446;7.904;2023-02-11T13:50:48;100198.16;;;5.49;100.00
10474;BME280;5284;50.446;7.904;2023-02-11T13:56:05;100209.47;;;5.53;100.00
10474;BME280;5284;50.446;7.904;2023-02-11T14:01:08;100199.00;;;5.50;100.00
10474;BME280;5284;50.446;7.904;2023-02-11T14:06:15;100208.44;;;5.57;100.00
10474;BME280;5284;50.446;7.904;2023-02-11T14:11:51;100217.25;;;5.57;100.00
10474;BME280;5284;50.446;7.904;2023-02-11T14:22:26;100234.59;;;5.64;100.00
10474;BME280;5284;50.446;7.904;2023-02-11T14:27:40;100228.38;;;5.65;100.00
10474;BME280;5284;50.446;7.904;2023-02-11T14:32:55;100221.38;;;5.64;100.00
10474;BME280;5284;50.446;7.904;2023-02-11T14:38:11;100229.28;;;5.66;100.00
10474;BME280;5284;50.446;7.904;2023-02-11T14:43:23;100225.91;;;5.61;100.00
10474;BME280;5284;50.446;7.904;2023-02-11T14:48:31;100225.88;;;5.62;100.00
10474;BME280;5284;50.446;7.904;2023-02-11T14:53:42;100223.25;;;5.61;100.00
10474;BME280;5284;50.446;7.904;2023-02-11T14:58:46;100231.13;;;5.64;100.00
10474;BME280;5284;50.446;7.904;2023-02-11T15:03:49;100227.53;;;5.65;100.00
10474;BME280;5284;50.446;7.904;2023-02-11T15:08:56;100231.97;;;5.64;100.00
10474;BME280;5284;50.446;7.904;2023-02-11T15:14:07;100238.28;;;5.60;100.00
10474;BME280;5284;50.446;7.904;2023-02-11T15:19:19;100244.50;;;5.59;100.00
10474;BME280;5284;50.446;7.904;2023-02-11T15:24:26;100247.28;;;5.56;100.00
10474;BME280;5284;50.446;7.904;2023-02-11T15:29:36;100251.63;;;5.57;100.00
10474;BME280;5284;50.446;7.904;2023-02-11T15:34:39;100247.31;;;5.55;100.00
10474;BME280;5284;50.446;7.904;2023-02-11T15:39:44;100251.75;;;5.54;100.00
10474;BME280;5284;50.446;7.904;2023-02-11T15:44:48;100266.03;;;5.50;100.00
10474;BME280;5284;50.446;7.904;2023-02-11T15:49:57;100269.47;;;5.52;100.00
10474;BME280;5284;50.446;7.904;2023-02-11T15:55:02;100269.63;;;5.48;100.00
10474;BME280;5284;50.446;7.904;2023-02-11T16:00:06;100272.41;;;5.45;100.00
10474;BME280;5284;50.446;7.904;2023-02-11T16:05:27;100267.22;;;5.42;100.00
10474;BME280;5284;50.446;7.904;2023-02-11T16:10:33;100276.06;;;5.41;100.00
10474;BME280;5284;50.446;7.904;2023-02-11T16:15:48;100284.94;;;5.40;100.00
10474;BME280;5284;50.446;7.904;2023-02-11T16:20:53;100287.72;;;5.35;100.00
10474;BME280;5284;50.446;7.904;2023-02-11T16:26:00;100297.50;;;5.33;100.00
10474;BME280;5284;50.446;7.904;2023-02-11T16:31:05;100302.09;;;5.28;100.00
10474;BME280;5284;50.446;7.904;2023-02-11T16:36:11;100306.53;;;5.28;100.00
10474;BME280;5284;50.446;7.904;2023-02-11T16:41:16;100308.31;;;5.27;100.00
10474;BME280;5284;50.446;7.904;2023-02-11T16:46:19;100315.53;;;5.22;100.00
10474;BME280;5284;50.446;7.904;2023-02-11T16:51:22;100311.22;;;5.20;100.00
10474;BME280;5284;50.446;7.904;2023-02-11T16:56:26;100313.00;;;5.19;100.00
10474;BME280;5284;50.446;7.904;2023-02-11T17:01:29;100317.50;;;5.17;100.00
10474;BME280;5284;50.446;7.904;2023-02-11T17:06:33;100321.91;;;5.17;100.00
10474;BME280;5284;50.446;7.904;2023-02-11T17:11:37;100332.53;;;5.15;100.00
10474;BME280;5284;50.446;7.904;2023-02-11T17:16:40;100334.38;;;5.13;100.00
10474;BME280;5284;50.446;7.904;2023-02-11T17:21:44;100337.94;;;5.12;100.00
10474;BME280;5284;50.446;7.904;2023-02-11T17:26:49;100336.25;;;5.10;100.00
10474;BME280;5284;50.446;7.904;2023-02-11T17:31:52;100345.91;;;5.11;100.00
10474;BME280;5284;50.446;7.904;2023-02-11T17:36:55;100347.84;;;5.06;100.00
10474;BME280;5284;50.446;7.904;2023-02-11T17:42:01;100355.81;;;5.04;100.00
10474;BME280;5284;50.446;7.904;2023-02-11T17:47:05;100355.88;;;5.03;100.00
10474;BME280;5284;50.446;7.904;2023-02-11T17:52:08;100352.38;;;5.02;100.00
10474;BME280;5284;50.446;7.904;2023-02-11T17:57:12;100365.59;;;5.02;100.00
10474;BME280;5284;50.446;7.904;2023-02-11T18:02:15;100367.41;;;5.00;100.00
10474;BME280;5284;50.446;7.904;2023-02-11T18:07:18;100372.72;;;5.00;100.00
10474;BME280;5284;50.446;7.904;2023-02-11T18:12:22;100373.59;;;5.01;100.00
10474;BME280;5284;50.446;7.904;2023-02-11T18:17:26;100372.78;;;4.99;100.00
10474;BME280;5284;50.446;7.904;2023-02-11T18:22:29;100366.69;;;4.97;100.00
10474;BME280;5284;50.446;7.904;2023-02-11T18:27:38;100374.59;;;4.97;100.00
10474;BME280;5284;50.446;7.904;2023-02-11T18:32:41;100371.84;;;5.00;100.00
10474;BME280;5284;50.446;7.904;2023-02-11T18:37:44;100355.13;;;4.99;100.00
10474;BME280;5284;50.446;7.904;2023-02-11T18:42:48;100355.22;;;4.96;100.00
10474;BME280;5284;50.446;7.904;2023-02-11T18:47:51;100371.06;;;4.98;100.00
10474;BME280;5284;50.446;7.904;2023-02-11T18:52:53;100365.66;;;5.01;100.00
10474;BME280;5284;50.446;7.904;2023-02-11T18:57:58;100366.50;;;5.01;100.00
10474;BME280;5284;50.446;7.904;2023-02-11T19:03:01;100370.94;;;5.01;100.00
10474;BME280;5284;50.446;7.904;2023-02-11T19:08:04;100370.94;;;5.01;100.00
10474;BME280;5284;50.446;7.904;2023-02-11T19:13:08;100372.78;;;4.99;100.00
10474;BME280;5284;50.446;7.904;2023-02-11T19:18:13;100374.50;;;5.00;100.00
10474;BME280;5284;50.446;7.904;2023-02-11T19:23:16;100362.19;;;4.99;100.00
10474;BME280;5284;50.446;7.904;2023-02-11T19:28:20;100361.31;;;4.98;100.00
10474;BME280;5284;50.446;7.904;2023-02-11T19:33:23;100368.34;;;4.99;100.00
10474;BME280;5284;50.446;7.904;2023-02-11T19:38:26;100371.84;;;5.00;100.00
10474;BME280;5284;50.446;7.904;2023-02-11T19:43:30;100386.72;;;5.02;100.00
10474;BME280;5284;50.446;7.904;2023-02-11T19:48:33;100398.22;;;5.01;100.00
10474;BME280;5284;50.446;7.904;2023-02-11T19:53:36;100397.31;;;5.02;100.00
10474;BME280;5284;50.446;7.904;2023-02-11T19:58:41;100399.03;;;5.03;100.00
10474;BME280;5284;50.446;7.904;2023-02-11T20:03:47;100403.41;;;5.04;100.00
10474;BME280;5284;50.446;7.904;2023-02-11T20:08:52;100410.50;;;5.04;100.00
10474;BME280;5284;50.446;7.904;2023-02-11T20:14:00;100407.88;;;5.02;100.00
10474;BME280;5284;50.446;7.904;2023-02-11T20:19:02;100419.28;;;5.04;100.00
10474;BME280;5284;50.446;7.904;2023-02-11T20:24:05;100417.72;;;4.99;100.00
10474;BME280;5284;50.446;7.904;2023-02-11T20:29:10;100417.72;;;4.99;100.00
10474;BME280;5284;50.446;7.904;2023-02-11T20:34:13;100422.94;;;5.00;100.00
10474;BME280;5284;50.446;7.904;2023-02-11T20:39:18;100423.84;;;4.99;100.00
10474;BME280;5284;50.446;7.904;2023-02-11T20:44:23;100429.09;;;5.01;100.00
10474;BME280;5284;50.446;7.904;2023-02-11T20:49:26;100427.47;;;4.97;100.00
10474;BME280;5284;50.446;7.904;2023-02-11T20:54:29;100419.47;;;4.98;100.00
10474;BME280;5284;50.446;7.904;2023-02-11T20:59:33;100418.66;;;4.96;100.00
10474;BME280;5284;50.446;7.904;2023-02-11T21:04:36;100422.22;;;4.95;100.00
10474;BME280;5284;50.446;7.904;2023-02-11T21:09:39;100426.59;;;4.96;100.00
10474;BME280;5284;50.446;7.904;2023-02-11T21:14:44;100425.75;;;4.96;100.00
10474;BME280;5284;50.446;7.904;2023-02-11T21:19:47;100421.28;;;4.98;100.00
10474;BME280;5284;50.446;7.904;2023-02-11T21:24:50;100429.38;;;4.92;100.00
10474;BME280;5284;50.446;7.904;2023-02-11T21:29:54;100426.69;;;4.93;100.00
10474;BME280;5284;50.446;7.904;2023-02-11T21:34:57;100438.19;;;4.92;100.00
10474;BME280;5284;50.446;7.904;2023-02-11T21:40:03;100442.56;;;4.93;100.00
10474;BME280;5284;50.446;7.904;2023-02-11T21:45:08;100441.78;;;4.90;100.00
10474;BME280;5284;50.446;7.904;2023-02-11T21:50:11;100447.94;;;4.90;100.00
10474;BME280;5284;50.446;7.904;2023-02-11T21:55:14;100456.69;;;4.92;100.00
10474;BME280;5284;50.446;7.904;2023-02-11T22:00:19;100460.16;;;4.94;100.00
10474;BME280;5284;50.446;7.904;2023-02-11T22:05:22;100453.22;;;4.90;100.00
10474;BME280;5284;50.446;7.904;2023-02-11T22:10:25;100469.91;;;4.92;100.00
10474;BME280;5284;50.446;7.904;2023-02-11T22:15:29;100460.25;;;4.91;100.00
10474;BME280;5284;50.446;7.904;2023-02-11T22:20:32;100459.38;;;4.91;100.00
10474;BME280;5284;50.446;7.904;2023-02-11T22:25:35;100471.66;;;4.92;100.00
10474;BME280;5284;50.446;7.904;2023-02-11T22:30:39;100469.03;;;4.92;100.00
10474;BME280;5284;50.446;7.904;2023-02-11T22:35:42;100482.19;;;4.93;100.00
10474;BME280;5284;50.446;7.904;2023-02-11T22:40:45;100474.31;;;4.92;100.00
10474;BME280;5284;50.446;7.904;2023-02-11T22:45:49;100469.94;;;4.91;100.00
10474;BME280;5284;50.446;7.904;2023-02-11T22:50:52;100474.38;;;4.90;100.00
10474;BME280;5284;50.446;7.904;2023-02-11T22:55:55;100475.22;;;4.91;100.00
10474;BME280;5284;50.446;7.904;2023-02-11T23:01:00;100474.41;;;4.89;100.00
10474;BME280;5284;50.446;7.904;2023-02-11T23:06:03;100478.78;;;4.90;100.00
10474;BME280;5284;50.446;7.904;2023-02-11T23:11:09;100491.19;;;4.88;100.00
10474;BME280;5284;50.446;7.904;2023-02-11T23:16:16;100493.81;;;4.88;100.00
10474;BME280;5284;50.446;7.904;2023-02-11T23:21:21;100493.81;;;4.88;100.00
10474;BME280;5284;50.446;7.904;2023-02-11T23:26:25;100492.91;;;4.89;100.00
10474;BME280;5284;50.446;7.904;2023-02-11T23:31:30;100489.41;;;4.88;100.00
10474;BME280;5284;50.446;7.904;2023-02-11T23:36:34;100489.41;;;4.88;100.00
10474;BME280;5284;50.446;7.904;2023-02-11T23:41:37;100493.00;;;4.86;100.00
10474;BME280;5284;50.446;7.904;2023-02-11T23:46:41;100496.53;;;4.86;100.00
10474;BME280;5284;50.446;7.904;2023-02-11T23:51:44;100497.44;;;4.85;100.00
10474;BME280;5284;50.446;7.904;2023-02-11T23:56:47;100497.44;;;4.85;100.00
